createdAt,value
2022-11-10T00:01:19.087Z,4.3125
2022-11-10T00:11:16.519Z,4.887499999999999
2022-11-10T00:21:22.292Z,3.5875000000000004
2022-11-10T00:31:17.931Z,5.824999999999999
2022-11-10T00:41:20.976Z,4.6125
2022-11-10T00:51:25.972Z,4.6875
2022-11-10T01:01:18.420Z,4.7625
2022-11-10T01:11:18.951Z,4.75
2022-11-10T01:21:16.242Z,4.875
2022-11-10T01:31:17.882Z,5.2375
2022-11-10T01:41:16.647Z,4.975
2022-11-10T01:51:24.757Z,4.7875
2022-11-10T02:01:17.203Z,6.550000000000001
2022-11-10T02:11:16.540Z,4.85
2022-11-10T02:21:17.000Z,4.55
2022-11-10T02:31:17.551Z,7.3625
2022-11-10T02:41:15.560Z,4.0625
2022-11-10T02:51:16.361Z,3.9875
2022-11-10T03:01:18.959Z,4.25
2022-11-10T03:11:17.031Z,4.8125
2022-11-10T03:21:17.270Z,4.325
2022-11-10T03:31:17.382Z,4.137499999999999
2022-11-10T03:41:19.822Z,3.75
2022-11-10T03:51:17.032Z,8.0875
2022-11-10T04:01:16.647Z,3.9374999999999996
2022-11-10T04:15:43.044Z,4.225
2022-11-10T04:21:16.753Z,3.0374999999999996
2022-11-10T04:31:19.073Z,4.8
2022-11-10T04:41:16.795Z,4.425
2022-11-10T04:51:19.235Z,6.6375
2022-11-10T05:01:19.663Z,3.25
2022-11-10T05:11:16.337Z,4.6875
2022-11-10T05:21:16.233Z,4.575
2022-11-10T05:31:16.212Z,4.4375
2022-11-10T05:41:16.660Z,3.7375
2022-11-10T05:51:16.661Z,3.8499999999999996
2022-11-10T06:01:17.215Z,4.4375
2022-11-10T06:11:16.874Z,2.0625
2022-11-10T06:21:17.090Z,2.8875
2022-11-10T06:31:16.452Z,2.4250000000000003
2022-11-10T06:41:21.283Z,1.8125
2022-11-10T06:51:16.690Z,2.1624999999999996
2022-11-10T07:01:21.269Z,2.2125000000000004
2022-11-10T07:11:16.639Z,2.55
2022-11-10T07:21:16.287Z,2.15
2022-11-10T07:31:23.543Z,1.725
2022-11-10T07:41:16.739Z,1.825
2022-11-10T07:51:17.537Z,2.1125
2022-11-10T08:01:15.879Z,1.7874999999999999
2022-11-10T08:11:18.484Z,2.0875
2022-11-10T08:21:16.264Z,6.175
2022-11-10T08:31:16.561Z,2.6125
2022-11-10T08:41:16.807Z,2.4
2022-11-10T08:51:17.544Z,2.4375
2022-11-10T09:01:17.142Z,2.0375
2022-11-10T09:11:16.438Z,2.2375000000000003
2022-11-10T09:21:16.679Z,2.0125
2022-11-10T09:31:16.608Z,1.8250000000000002
2022-11-10T09:41:17.560Z,1.425
2022-11-10T09:51:36.057Z,1.775
2022-11-10T10:01:29.952Z,1.4500000000000002
2022-11-10T10:11:29.003Z,2.7
2022-11-10T10:21:31.131Z,1.45
2022-11-10T10:31:27.152Z,1.8625
2022-11-10T10:41:24.049Z,2.225
2022-11-10T10:51:28.438Z,1.3
2022-11-10T11:01:25.318Z,1.6375
2022-11-10T11:11:16.593Z,0.95
2022-11-10T11:21:30.612Z,1.4875
2022-11-10T11:31:26.083Z,2.175
2022-11-10T11:41:30.635Z,2.425
2022-11-10T11:51:25.848Z,2.5875000000000004
2022-11-10T12:01:42.156Z,3.6125
2022-11-10T12:11:27.127Z,2.0125
2022-11-10T12:21:24.106Z,3.575
2022-11-10T12:31:21.012Z,4.2625
2022-11-10T12:41:19.853Z,2
2022-11-10T12:51:23.896Z,2.2125000000000004
2022-11-10T13:01:19.373Z,1.6124999999999998
2022-11-10T13:11:27.052Z,1.7375
2022-11-10T13:21:16.470Z,1.7374999999999998
2022-11-10T13:32:28.674Z,2.8375
2022-11-10T13:41:22.898Z,5.15
2022-11-10T13:51:31.695Z,5.8500000000000005
2022-11-10T14:01:24.607Z,6.15
2022-11-10T14:11:26.561Z,4.3375
2022-11-10T14:21:27.351Z,2.7750000000000004
2022-11-10T14:31:20.480Z,2.1
2022-11-10T14:41:17.874Z,2.075
2022-11-10T14:51:18.640Z,3.7
2022-11-10T15:01:24.590Z,2.9625000000000004
2022-11-10T15:11:51.175Z,3.1
2022-11-10T15:21:18.068Z,3.2750000000000004
2022-11-10T15:31:22.988Z,2.425
2022-11-10T15:41:27.010Z,3.05
2022-11-10T15:51:26.144Z,5.2749999999999995
2022-11-10T16:01:18.035Z,5.375
2022-11-10T16:11:20.484Z,4.225
2022-11-10T16:21:19.766Z,4.3125
2022-11-10T16:31:18.603Z,4.175000000000001
2022-11-10T16:41:17.313Z,4.375
2022-11-10T16:51:28.036Z,8.05
2022-11-10T17:01:20.137Z,5.175000000000001
2022-11-10T17:11:17.237Z,6.65
2022-11-10T17:21:18.031Z,9.3375
2022-11-10T17:31:15.991Z,7.925
2022-11-10T17:41:18.519Z,3.8375000000000004
2022-11-10T17:51:19.332Z,4.1875
2022-11-10T18:01:19.112Z,3.8625
2022-11-10T18:11:18.142Z,7.9750000000000005
2022-11-10T18:21:16.310Z,9.25
2022-11-10T18:31:19.265Z,9.325000000000001
2022-11-10T18:41:50.279Z,7.462499999999999
2022-11-10T18:51:17.885Z,4.6875
2022-11-10T19:01:17.485Z,4.5875
2022-11-10T19:11:17.639Z,7.125
2022-11-10T19:21:18.807Z,4.525
2022-11-10T19:31:19.282Z,4.7375
2022-11-10T19:41:19.173Z,5.575
2022-11-10T19:51:18.146Z,4.362500000000001
2022-11-10T20:01:21.203Z,3.375
2022-11-10T20:11:19.143Z,4.9625
2022-11-10T20:21:18.874Z,4.975
2022-11-10T20:31:18.900Z,6.925000000000001
2022-11-10T20:41:19.007Z,5.675
2022-11-10T20:51:20.098Z,4.7875000000000005
2022-11-10T21:01:16.906Z,3.0625
2022-11-10T21:12:49.599Z,2.5999999999999996
2022-11-10T21:21:20.130Z,2.725
2022-11-10T21:31:16.156Z,3.6374999999999997
2022-11-10T21:41:16.650Z,3.2250000000000005
2022-11-10T21:51:17.350Z,3.1
2022-11-10T22:01:18.969Z,3.2875
2022-11-10T22:21:16.225Z,2.9125
2022-11-10T22:31:16.308Z,2.925
2022-11-10T22:51:16.260Z,2.6125
2022-11-10T23:01:17.167Z,2.3875
2022-11-10T23:11:18.608Z,2.3499999999999996
2022-11-10T23:21:19.834Z,2.7375
2022-11-10T23:31:18.893Z,2.5375
2022-11-10T23:41:17.638Z,2.35
2022-11-10T23:51:17.393Z,2.0625
